Latest Coastal Weather Observations for Yamba

IDN60701

Issued at 4:31 pm EST Saturday 30 May 2015 (issued every 10 minutes, with the page automatically refreshed every 10 minutes)

About coastal observations | Map of coastal stations | Coastal observations for NSW | Marine services | Other Formats
Station Details ID: 058012 Name: YAMBA PILOT STATION Lat: -29.43 Lon: 153.36 Height: 27.4 m
Data from the previous 72 hours. | See also: Recent months at Yamba
Date/Time
EST
Temp

°C
Wind Pressure Rain
since 9am
mm
Weather Cloud Vis
km
Sea
Height
m
Swell
Dir
 
Speed
knots
Gust
knots
hPa Trend Height
m
Period
s
Dir
30/04:30pm 19.9 SE 3 4 1018.5 - 0.0 - - - - - - -
30/04:00pm 20.1 SE 4 5 1018.4 - 0.0 - - - - - - -
30/03:30pm 20.2 SE 6 7 1018.3 - 0.0 - - - - - - -
30/03:00pm 20.3 SE 6 7 1018.5 - 0.0 - - - - - - -
30/02:30pm 20.3 SE 7 8 1018.5 - 0.0 - - - - - - -
30/02:00pm 20.5 SE 7 9 1018.6 - 0.0 - - - - - - -
30/01:30pm 21.3 SE 5 7 1018.9 - 0.0 - - - - - - -
30/01:00pm 20.9 SE 4 6 1019.2 - 0.0 - - - - - - -
30/12:30pm 21.1 SE 5 6 1019.6 - 0.0 - - - - - - -
30/12:00pm 20.8 SE 2 4 1020.2 - 0.0 - - - - - - -
30/11:30am 20.3 SSW 5 6 1020.7 - 0.0 - - - - - - -
30/11:00am 20.4 SSE 3 6 1021.1 - 0.0 - - - - - - -
30/10:00am 19.3 WSW 4 5 1022.3 - 0.0 - - - - - - -
30/09:30am 18.2 SW 5 7 1022.7 - 0.0 - - - - - - -
30/09:00am 17.8 SW 6 8 1023.1 - 0.0 - - - - - - -
30/08:30am 17.3 WSW 7 8 1022.6 - 0.0 - - - - - - -
30/08:00am 17.2 SW 5 8 1022.2 - 0.0 - - - - - - -
30/07:30am 17.0 SW 6 8 1022.1 - 0.0 - - - - - - -
30/07:00am 16.7 SW 6 8 1021.8 - 0.0 - - - - - - -
30/06:30am 16.6 WSW 5 6 1021.9 - 0.0 - - - - - - -
30/06:00am 16.6 SW 5 7 1021.5 - 0.0 - - - - - - -
30/05:30am 16.7 SW 6 8 1021.1 - 0.0 - - - - - - -
30/05:00am 16.6 SW 5 7 1021.1 - 0.0 - - - - - - -
30/04:30am 16.5 SW 5 7 1020.9 - 0.0 - - - - - - -
30/04:00am 16.5 WSW 4 6 1020.5 - 0.0 - - - - - - -
30/03:30am 16.6 SW 5 7 1020.5 - 0.0 - - - - - - -
30/03:00am 16.8 WSW 5 7 1020.8 - 0.0 - - - - - - -
30/02:30am 17.3 SW 5 6 1021.0 - 0.0 - - - - - - -
30/02:00am 17.3 SW 5 7 1021.3 - 0.0 - - - - - - -
30/01:30am 17.8 SSW 6 8 1021.4 - 0.0 - - - - - - -
30/01:00am 17.9 SSW 5 7 1021.7 - 0.0 - - - - - - -
30/12:30am 18.1 SSW 8 9 1021.7 - 0.0 - - - - - - -
30/12:00am 18.4 S 8 9 1021.8 - 0.0 - - - - - - -
 
Date/Time
EST
Temp

°C
Wind Pressure Rain
since 9am
mm
Weather Cloud Vis
km
Sea
Height
m
Swell
Dir
 
Speed
knots
Gust
knots
hPa Trend Height
m
Period
s
Dir
29/11:30pm 19.3 S 6 8 1021.9 - 0.0 - - - - - - -
29/11:00pm 19.8 SSE 5 7 1021.9 - 0.0 - - - - - - -
29/10:30pm 20.2 SSE 6 8 1022.4 - 0.0 - - - - - - -
29/10:00pm 20.2 S 6 8 1022.6 - 0.0 - - - - - - -
29/09:30pm 20.4 SSE 7 8 1022.3 - 0.0 - - - - - - -
29/09:00pm 20.9 SE 8 10 1022.1 - 0.0 - - - - - - -
29/08:30pm 20.6 SE 7 9 1022.3 - 0.0 - - - - - - -
29/08:00pm 20.3 SSE 5 7 1022.4 - 0.0 - - - - - - -
29/07:30pm 20.5 SE 6 8 1021.9 - 0.0 - - - - - - -
29/07:00pm 20.7 SSE 5 7 1022.0 - 0.0 - - - - - - -
29/06:30pm 20.6 SW 2 5 1021.5 - 0.0 - - - - - - -
29/06:00pm 20.4 CALM 0 0 1021.4 - 0.0 - - - - - - -
29/05:30pm 20.7 CALM 0 0 1021.2 - 0.0 - - - - - - -
29/05:00pm 20.7 WNW 3 3 1021.1 - 0.0 - - - - - - -
29/04:30pm 20.6 CALM 0 4 1020.8 - 0.0 - - - - - - -
29/04:00pm 21.5 CALM 0 2 1020.9 - 0.0 - - - - - - -
29/03:30pm 21.5 WNW 3 4 1020.7 - 0.0 - - - - - - -
29/03:00pm 22.2 WNW 3 4 1020.6 - 0.0 - - - - - - -
29/02:30pm 22.8 WNW 3 5 1020.5 - 0.0 - - - - - - -
29/02:00pm 24.5 NW 5 7 1020.6 - 0.0 - - - - - - -
29/01:30pm 22.6 WNW 5 7 1020.4 - 0.0 - - - - - - -
29/01:00pm 22.2 WNW 7 9 1020.8 - 0.0 - - - - - - -
29/12:30pm 21.9 W 7 11 1021.2 - 0.0 - - - - - - -
29/12:00pm 22.4 WNW 6 8 1021.3 - 0.0 - - - - - - -
29/11:30am 22.4 NW 7 11 1021.5 - 0.0 - - - - - - -
29/11:00am 22.4 NW 8 11 1022.3 - 0.0 - - - - - - -
29/10:30am 22.0 NW 5 8 1022.7 - 0.0 - - - - - - -
29/10:00am 21.1 WNW 5 9 1023.1 - 0.0 - - - - - - -
29/09:30am 19.4 WNW 5 8 1022.8 - 0.0 - - - - - - -
29/09:00am 17.6 NW 5 6 1022.8 - 0.0 - - - - - - -
29/08:30am 16.5 WNW 5 7 1022.6 - 0.0 - - - - - - -
29/08:00am 15.8 W 6 8 1022.9 - 0.0 - - - - - - -
29/07:30am 15.7 W 6 8 1022.8 - 0.0 - - - - - - -
29/07:00am 15.6 NW 6 9 1022.2 - 0.0 - - - - - - -
29/06:30am 15.1 NW 5 7 1022.3 - 0.0 - - - - - - -
29/06:00am 15.2 NNW 4 5 1021.8 - 0.0 - - - - - - -
29/05:30am 15.4 NNW 3 4 1021.9 - 0.0 - - - - - - -
29/05:00am 15.6 NW 2 5 1021.9 - 0.0 - - - - - - -
29/04:30am 15.7 WNW 3 4 1021.7 - 0.0 - - - - - - -
29/04:00am 15.9 WNW 3 5 1022.0 - 0.0 - - - - - - -
29/03:30am 16.1 NNW 2 4 1022.0 - 0.0 - - - - - - -
29/03:00am 16.1 NW 5 11 1022.1 - 0.0 - - - - - - -
29/02:30am 16.3 WNW 5 7 1022.1 - 0.0 - - - - - - -
29/02:00am 16.4 WNW 6 7 1022.3 - 0.0 - - - - - - -
29/01:30am 16.4 W 6 8 1022.4 - 0.0 - - - - - - -
29/01:00am 16.7 WNW 6 8 1022.7 - 0.0 - - - - - - -
29/12:30am 16.7 W 5 6 1022.9 - 0.0 - - - - - - -
29/12:00am 16.8 NW 5 6 1023.0 - 0.0 - - - - - - -
 
Date/Time
EST
Temp

°C
Wind Pressure Rain
since 9am
mm
Weather Cloud Vis
km
Sea
Height
m
Swell
Dir
 
Speed
knots
Gust
knots
hPa Trend Height
m
Period
s
Dir
28/11:30pm 17.0 NNW 5 6 1022.9 - 0.0 - - - - - - -
28/11:00pm 16.9 NW 5 6 1023.0 - 0.0 - - - - - - -
28/10:30pm 17.0 WNW 4 6 1023.6 - 0.0 - - - - - - -
28/10:00pm 17.2 WNW 5 7 1023.7 - 0.0 - - - - - - -
28/09:30pm 17.4 NW 5 6 1023.7 - 0.0 - - - - - - -
28/09:00pm 17.6 NW 4 6 1023.6 - 0.0 - - - - - - -
28/08:30pm 18.3 NW 5 6 1023.6 - 0.0 - - - - - - -
28/08:00pm 19.5 NNW 4 8 1023.4 - 0.0 - - - - - - -
28/07:30pm 19.4 N 4 7 1023.2 - 0.0 - - - - - - -
28/07:00pm 19.5 NNE 6 8 1022.7 - 0.0 - - - - - - -
28/06:30pm 19.7 NE 5 8 1022.9 - 0.0 - - - - - - -
28/06:00pm 19.6 NE 5 8 1022.4 - 0.0 - - - - - - -
28/05:30pm 19.6 NE 5 8 1022.2 - 0.0 - - - - - - -
28/05:00pm 19.7 NE 5 8 1022.2 - 0.0 - - - - - - -
28/04:30pm 19.9 NE 4 7 1022.0 - 0.0 - - - - - - -
28/04:00pm 20.4 NE 4 7 1021.7 - 0.0 - - - - - - -
28/03:30pm 20.8 ENE 5 7 1021.8 - 0.0 - - - - - - -
28/03:00pm 21.0 ENE 4 7 1021.6 - 0.0 - - - - - - -
28/02:30pm 21.0 ENE 5 8 1021.7 - 0.0 - - - - - - -
28/02:00pm 21.7 NE 3 5 1021.6 - 0.0 - - - - - - -
28/01:30pm 20.9 ENE 5 6 1021.5 - 0.0 - - - - - - -
28/01:00pm 21.7 NNE 4 6 1022.0 - 0.0 - - - - - - -
28/12:30pm 21.6 WNW 3 4 1022.6 - 0.0 - - - - - - -
28/12:00pm 21.2 WSW 5 9 1023.2 - 0.0 - - - - - - -
28/11:30am 20.3 W 6 10 1023.9 - 0.0 - - - - - - -
28/11:00am 19.4 W 6 8 1024.3 - 0.0 - - - - - - -
28/10:30am 18.9 W 5 7 1024.6 - 0.0 - - - - - - -
28/10:00am 18.0 WNW 4 6 1024.8 - 0.0 - - - - - - -
28/09:30am 17.1 W 4 7 1024.8 - 0.0 - - - - - - -
28/09:00am 16.3 W 6 9 1024.7 - 0.0 - - - - - - -
28/08:30am 15.6 W 6 10 1024.7 - 0.0 - - - - - - -
28/08:00am 14.9 WSW 6 8 1024.4 - 0.0 - - - - - - -
28/07:30am 14.5 W 5 7 1024.2 - 0.0 - - - - - - -
28/07:00am 14.0 W 5 6 1023.6 - 0.0 - - - - - - -
28/06:30am 13.8 W 6 8 1023.2 - 0.0 - - - - - - -
28/06:00am 13.6 WSW 6 8 1022.9 - 0.0 - - - - - - -
28/05:30am 13.7 WSW 6 7 1022.7 - 0.0 - - - - - - -
28/05:00am 13.8 WSW 6 8 1023.0 - 0.0 - - - - - - -
28/04:30am 13.9 WSW 5 8 1023.0 - 0.0 - - - - - - -
28/04:00am 13.9 W 6 7 1022.6 - 0.0 - - - - - - -
28/03:30am 14.1 WSW 6 8 1022.8 - 0.0 - - - - - - -
28/03:00am 14.2 WSW 6 8 1022.8 - 0.0 - - - - - - -
28/02:30am 14.7 SW 4 6 1022.5 - 0.0 - - - - - - -
28/02:00am 14.9 SW 7 9 1023.0 - 0.0 - - - - - - -
28/01:30am 14.8 SW 5 7 1023.1 - 0.0 - - - - - - -
28/01:00am 15.0 SW 7 9 1023.1 - 0.0 - - - - - - -
28/12:30am 15.0 SW 6 8 1023.6 - 0.0 - - - - - - -
28/12:00am 15.2 SW 5 6 1023.5 - 0.0 - - - - - - -
 
Date/Time
EST
Temp

°C
Wind Pressure Rain
since 9am
mm
Weather Cloud Vis
km
Sea
Height
m
Swell
Dir
 
Speed
knots
Gust
knots
hPa Trend Height
m
Period
s
Dir
27/11:30pm 15.5 WSW 7 8 1023.3 - 0.0 - - - - - - -
27/11:00pm 15.5 SW 6 7 1023.4 - 0.0 - - - - - - -
27/10:30pm 15.8 SW 5 7 1023.4 - 0.0 - - - - - - -
27/10:00pm 16.3 WSW 6 7 1023.2 - 0.0 - - - - - - -
27/09:30pm 16.8 WSW 5 6 1023.3 - 0.0 - - - - - - -
27/09:00pm 17.2 SW 3 4 1023.5 - 0.0 - - - - - - -
27/08:30pm 17.4 SW 4 5 1023.4 - 0.0 - - - - - - -
27/08:00pm 18.9 NNE 2 4 1023.5 - 0.0 - - - - - - -
27/07:30pm 18.8 NNE 4 7 1023.3 - 0.0 - - - - - - -
27/07:00pm 19.1 ENE 4 7 1023.0 - 0.0 - - - - - - -
27/06:30pm 19.2 ENE 6 9 1022.6 - 0.0 - - - - - - -
27/06:00pm 19.2 ENE 6 8 1022.4 - 0.0 - - - - - - -
27/05:30pm 19.1 E 5 7 1022.7 - 0.0 - - - - - - -
27/05:00pm 19.2 E 5 6 1022.6 - 0.0 - - - - - - -

Other Formats:

Comma delimited format used in spreadsheet applications
http://www.bom.gov.au/fwo/IDN60701/IDN60701.94589.axf

JavaScript Object Notation format (JSON) in row-major order
http://www.bom.gov.au/fwo/IDN60701/IDN60701.94589.json